Time;durP1;ratioP1;P1;durP2;ratioP2;P2;SDS_P1;SDS_P2;PMS_P1;PMS_P2;Temp;Humidity;BMP_temperature;BMP_pressure;BME280_temperature;BME280_humidity;BME280_pressure;Samples;Min_cycle;Max_cycle;Signal;HPM_P1;HPM_P2
2023/01/08 00:00:41;;;;;;;4.00;3.70;;;;;;;;;;4929272;28;21231;-71
2023/01/08 00:03:38;;;;;;;3.20;3.00;;;;;;;;;;4931650;28;20456;-71
2023/01/08 00:06:29;;;;;;;3.47;3.27;;;;;;;;;;4938799;28;20686;-71
2023/01/08 00:09:22;;;;;;;3.77;3.43;;;;;;;;;;4932898;28;20462;-71
2023/01/08 00:12:13;;;;;;;4.13;3.83;;;;;;;;;;4924286;28;20898;-71
2023/01/08 00:15:04;;;;;;;3.73;3.43;;;;;;;;;;4921099;28;20538;-71
2023/01/08 00:17:54;;;;;;;3.77;3.47;;;;;;;;;;4939373;28;20550;-71
2023/01/08 00:20:44;;;;;;;4.00;3.70;;;;;;;;;;4944540;29;20463;-71
2023/01/08 00:23:39;;;;;;;3.43;3.20;;;;;;;;;;4940879;28;20486;-71
2023/01/08 00:26:28;;;;;;;3.80;3.50;;;;;;;;;;4926506;28;20601;-71
2023/01/08 00:29:20;;;;;;;4.13;3.70;;;;;;;;;;4929425;28;20456;-71
2023/01/08 00:32:08;;;;;;;3.93;3.63;;;;;;;;;;4942299;28;20456;-71
2023/01/08 00:35:00;;;;;;;3.63;3.33;;;;;;;;;;4943945;28;20857;-71
2023/01/08 00:37:50;;;;;;;4.33;3.93;;;;;;;;;;4944364;29;20456;-71
2023/01/08 00:40:45;;;;;;;3.73;3.43;;;;;;;;;;4942942;29;20476;-71
2023/01/08 00:43:34;;;;;;;4.33;3.57;;;;;;;;;;4940697;28;20486;-71
2023/01/08 00:46:27;;;;;;;4.20;3.80;;;;;;;;;;4938016;28;20476;-71
2023/01/08 00:49:18;;;;;;;4.27;3.93;;;;;;;;;;4943396;28;20464;-71
2023/01/08 00:52:13;;;;;;;3.90;3.60;;;;;;;;;;4944399;28;20460;-70
2023/01/08 00:55:02;;;;;;;3.63;3.33;;;;;;;;;;4941835;28;20480;-70
2023/01/08 00:57:50;;;;;;;3.83;3.53;;;;;;;;;;4942567;29;20996;-70
2023/01/08 01:00:39;;;;;;;4.37;3.97;;;;;;;;;;4935307;28;20550;-70
2023/01/08 01:03:27;;;;;;;3.97;3.60;;;;;;;;;;4930909;28;20459;-70
2023/01/08 01:06:16;;;;;;;3.23;3.00;;;;;;;;;;4937577;28;21057;-70
2023/01/08 01:09:09;;;;;;;4.33;3.50;;;;;;;;;;4930938;28;20897;-70
2023/01/08 01:12:00;;;;;;;4.00;3.70;;;;;;;;;;4930982;28;20483;-70
2023/01/08 01:14:49;;;;;;;3.67;3.37;;;;;;;;;;4932860;28;20497;-70
2023/01/08 01:17:38;;;;;;;3.93;3.63;;;;;;;;;;4925877;28;20495;-70
2023/01/08 01:20:29;;;;;;;3.57;3.27;;;;;;;;;;4927439;28;20488;-70
2023/01/08 01:23:23;;;;;;;5.80;3.40;;;;;;;;;;4930910;28;20496;-70
2023/01/08 01:26:20;;;;;;;3.77;3.47;;;;;;;;;;4935433;28;20484;-70
2023/01/08 01:29:10;;;;;;;3.80;3.50;;;;;;;;;;4921986;28;20527;-70
2023/01/08 01:32:01;;;;;;;4.60;4.20;;;;;;;;;;4928749;28;20475;-70
2023/01/08 01:35:01;;;;;;;3.90;3.60;;;;;;;;;;4923227;28;20598;-69
2023/01/08 01:37:51;;;;;;;3.90;3.60;;;;;;;;;;4925629;28;20465;-72
2023/01/08 01:40:50;;;;;;;4.40;4.00;;;;;;;;;;4934898;28;20620;-70
2023/01/08 01:43:46;;;;;;;4.10;3.70;;;;;;;;;;4919084;28;20475;-72
2023/01/08 01:46:42;;;;;;;3.87;3.57;;;;;;;;;;4929053;28;21165;-70
2023/01/08 01:49:31;;;;;;;4.20;3.80;;;;;;;;;;4915326;28;21113;-71
2023/01/08 01:52:21;;;;;;;4.23;3.50;;;;;;;;;;4924285;28;20947;-71
2023/01/08 01:55:11;;;;;;;4.20;3.80;;;;;;;;;;4930321;28;20487;-71
2023/01/08 01:58:04;;;;;;;3.80;3.50;;;;;;;;;;4923950;28;21066;-70
2023/01/08 02:00:57;;;;;;;3.47;3.23;;;;;;;;;;4921765;28;20455;-72
2023/01/08 02:03:46;;;;;;;4.10;3.80;;;;;;;;;;4927965;28;20658;-72
2023/01/08 02:06:51;;;;;;;4.97;3.63;;;;;;;;;;4922371;28;20500;-69
2023/01/08 02:09:44;;;;;;;3.83;3.53;;;;;;;;;;4926626;28;20455;-70
2023/01/08 02:12:37;;;;;;;3.63;3.33;;;;;;;;;;4931115;28;20455;-70
2023/01/08 02:15:39;;;;;;;4.10;3.80;;;;;;;;;;4922843;28;20850;-70
2023/01/08 02:18:38;;;;;;;3.80;3.50;;;;;;;;;;4921143;28;20447;-70
2023/01/08 02:21:32;;;;;;;3.80;3.50;;;;;;;;;;4931039;28;20514;-72
2023/01/08 02:24:31;;;;;;;3.97;3.67;;;;;;;;;;4922754;28;20463;-70
2023/01/08 02:27:21;;;;;;;3.63;3.33;;;;;;;;;;4936938;29;20488;-71
2023/01/08 02:30:11;;;;;;;3.57;3.27;;;;;;;;;;4922522;28;20464;-71
2023/01/08 02:32:59;;;;;;;4.10;3.37;;;;;;;;;;4934264;28;20516;-70
2023/01/08 02:35:52;;;;;;;3.50;3.20;;;;;;;;;;4935127;28;20567;-72
2023/01/08 02:38:43;;;;;;;3.50;3.07;;;;;;;;;;4939872;28;20963;-73
2023/01/08 02:41:38;;;;;;;3.60;3.30;;;;;;;;;;4939836;28;20858;-72
2023/01/08 02:44:36;;;;;;;4.10;3.80;;;;;;;;;;4936433;28;20472;-71
2023/01/08 02:47:42;;;;;;;3.93;3.63;;;;;;;;;;4940921;28;22375;-71
2023/01/08 02:50:38;;;;;;;3.80;3.40;;;;;;;;;;4940487;28;20825;-72
2023/01/08 02:53:30;;;;;;;3.77;3.47;;;;;;;;;;4941626;28;20468;-71
2023/01/08 02:56:22;;;;;;;3.70;3.40;;;;;;;;;;4942507;28;21239;-71
2023/01/08 02:59:14;;;;;;;3.70;3.30;;;;;;;;;;4923946;28;20460;-70
2023/01/08 03:02:04;;;;;;;3.83;3.53;;;;;;;;;;4930871;28;20452;-70
2023/01/08 03:04:55;;;;;;;4.00;3.70;;;;;;;;;;4938299;28;21237;-71
2023/01/08 03:07:44;;;;;;;3.97;3.57;;;;;;;;;;4924134;28;20490;-71
2023/01/08 03:10:33;;;;;;;3.57;3.30;;;;;;;;;;4921843;28;20460;-71
2023/01/08 03:13:24;;;;;;;3.13;2.90;;;;;;;;;;4927536;28;20455;-71
2023/01/08 03:16:18;;;;;;;3.70;3.40;;;;;;;;;;4933885;28;20490;-71
2023/01/08 03:19:10;;;;;;;4.17;3.77;;;;;;;;;;4931726;28;20448;-72
2023/01/08 03:21:59;;;;;;;3.13;2.93;;;;;;;;;;4936420;28;21219;-72
2023/01/08 03:24:53;;;;;;;3.57;3.30;;;;;;;;;;4926562;28;20487;-71
2023/01/08 03:27:47;;;;;;;3.90;3.60;;;;;;;;;;4934164;28;20846;-71
2023/01/08 03:30:40;;;;;;;3.33;3.13;;;;;;;;;;4935475;29;20466;-70
2023/01/08 03:33:31;;;;;;;3.77;3.47;;;;;;;;;;4928626;28;20471;-71
2023/01/08 03:36:22;;;;;;;3.60;3.30;;;;;;;;;;4938808;28;20483;-70
2023/01/08 03:39:13;;;;;;;4.30;3.90;;;;;;;;;;4942055;28;20452;-70
2023/01/08 03:42:03;;;;;;;3.90;3.60;;;;;;;;;;4941944;28;20478;-70
2023/01/08 03:44:55;;;;;;;3.63;3.33;;;;;;;;;;4940768;28;20539;-72
2023/01/08 03:47:50;;;;;;;3.53;3.23;;;;;;;;;;4936790;28;20487;-70
2023/01/08 03:50:43;;;;;;;3.60;3.30;;;;;;;;;;4939327;28;20468;-72
2023/01/08 03:53:36;;;;;;;3.67;3.37;;;;;;;;;;4941101;28;21305;-71
2023/01/08 03:56:25;;;;;;;4.03;3.70;;;;;;;;;;4940286;28;20495;-71
2023/01/08 03:59:16;;;;;;;3.83;3.53;;;;;;;;;;4941445;29;20468;-71
2023/01/08 04:02:07;;;;;;;3.37;3.07;;;;;;;;;;4938481;28;20464;-71
2023/01/08 04:04:56;;;;;;;4.37;3.87;;;;;;;;;;4938675;28;21043;-71
2023/01/08 04:07:52;;;;;;;3.70;3.40;;;;;;;;;;4940829;28;20854;-71
2023/01/08 04:10:42;;;;;;;3.80;3.50;;;;;;;;;;4941372;28;20660;-71
2023/01/08 04:13:30;;;;;;;4.00;3.70;;;;;;;;;;4942850;28;20460;-71
2023/01/08 04:16:20;;;;;;;4.20;3.80;;;;;;;;;;4941430;28;20541;-71
2023/01/08 04:19:11;;;;;;;3.97;3.60;;;;;;;;;;4942004;28;20847;-71
2023/01/08 04:22:02;;;;;;;4.57;3.80;;;;;;;;;;4942829;28;20823;-71
2023/01/08 04:24:53;;;;;;;3.70;3.40;;;;;;;;;;4940471;28;20480;-71
2023/01/08 04:27:48;;;;;;;3.50;3.20;;;;;;;;;;4940760;28;20447;-71
2023/01/08 04:30:38;;;;;;;3.90;3.60;;;;;;;;;;4941162;28;20492;-71
2023/01/08 04:33:27;;;;;;;3.43;3.13;;;;;;;;;;4943075;28;20459;-72
2023/01/08 04:36:16;;;;;;;3.57;3.10;;;;;;;;;;4942680;28;20912;-70
2023/01/08 04:39:06;;;;;;;3.80;3.50;;;;;;;;;;4941071;28;20464;-70
2023/01/08 04:42:00;;;;;;;3.57;3.27;;;;;;;;;;4937553;28;20467;-70
2023/01/08 04:44:52;;;;;;;3.67;3.40;;;;;;;;;;4943955;28;20468;-70
2023/01/08 04:47:44;;;;;;;3.40;3.10;;;;;;;;;;4943490;28;20550;-71
2023/01/08 04:50:33;;;;;;;3.30;3.00;;;;;;;;;;4946214;28;20489;-70
2023/01/08 04:53:21;;;;;;;3.90;3.60;;;;;;;;;;4945457;28;20461;-70
2023/01/08 04:56:11;;;;;;;5.27;3.60;;;;;;;;;;4940523;28;20484;-70
2023/01/08 04:58:59;;;;;;;3.53;3.23;;;;;;;;;;4943960;28;20463;-70
2023/01/08 05:01:52;;;;;;;3.50;3.20;;;;;;;;;;4932402;28;20475;-70
2023/01/08 05:04:41;;;;;;;4.20;3.80;;;;;;;;;;4935761;28;20847;-70
2023/01/08 05:07:29;;;;;;;3.77;3.47;;;;;;;;;;4934965;28;20482;-70
2023/01/08 05:10:20;;;;;;;3.40;3.10;;;;;;;;;;4931030;28;20459;-70
2023/01/08 05:13:15;;;;;;;3.73;3.43;;;;;;;;;;4930482;28;20520;-70
2023/01/08 05:16:06;;;;;;;3.60;3.30;;;;;;;;;;4941544;28;20484;-72
2023/01/08 05:19:00;;;;;;;3.57;3.30;;;;;;;;;;4942793;28;20470;-70
2023/01/08 05:21:54;;;;;;;3.97;3.50;;;;;;;;;;4931905;28;20460;-72
2023/01/08 05:24:44;;;;;;;4.00;3.60;;;;;;;;;;4927119;28;20480;-72
2023/01/08 05:27:41;;;;;;;3.57;3.27;;;;;;;;;;4940985;28;20504;-70
2023/01/08 05:30:31;;;;;;;3.57;3.27;;;;;;;;;;4928687;28;20464;-70
2023/01/08 05:33:22;;;;;;;3.53;3.23;;;;;;;;;;4927537;28;20463;-70
2023/01/08 05:36:14;;;;;;;4.17;3.77;;;;;;;;;;4943460;28;20486;-71
2023/01/08 05:39:04;;;;;;;3.70;3.40;;;;;;;;;;4932973;28;20454;-70
2023/01/08 05:45:15;;;;;;;4.10;3.70;;;;;;;;;;4935598;28;20483;-73
2023/01/08 05:48:06;;;;;;;3.90;3.53;;;;;;;;;;4931117;28;20845;-72
2023/01/08 05:50:58;;;;;;;4.57;4.17;;;;;;;;;;4926001;28;20670;-70
2023/01/08 05:53:49;;;;;;;3.40;3.10;;;;;;;;;;4929263;28;20978;-73
2023/01/08 05:56:38;;;;;;;3.93;3.60;;;;;;;;;;4939631;28;20503;-72
2023/01/08 05:59:27;;;;;;;3.90;3.60;;;;;;;;;;4931896;28;20491;-72
2023/01/08 06:02:16;;;;;;;3.80;3.50;;;;;;;;;;4925610;28;20517;-72
2023/01/08 06:05:09;;;;;;;5.63;3.73;;;;;;;;;;4939480;28;20528;-71
2023/01/08 06:08:00;;;;;;;3.63;3.33;;;;;;;;;;4925108;28;20492;-71
2023/01/08 06:11:05;;;;;;;4.33;4.03;;;;;;;;;;4932459;28;20475;-71
2023/01/08 06:13:55;;;;;;;3.53;3.07;;;;;;;;;;4921210;28;20464;-73
2023/01/08 06:16:46;;;;;;;3.63;3.33;;;;;;;;;;4936736;28;20480;-71
2023/01/08 06:19:34;;;;;;;3.60;3.30;;;;;;;;;;4942535;28;20447;-71
2023/01/08 06:22:24;;;;;;;3.80;3.43;;;;;;;;;;4934378;28;20464;-72
2023/01/08 06:25:17;;;;;;;3.40;3.10;;;;;;;;;;4930951;28;20563;-71
2023/01/08 06:28:08;;;;;;;3.40;3.10;;;;;;;;;;4932128;28;20951;-71
2023/01/08 06:30:58;;;;;;;3.60;3.20;;;;;;;;;;4929624;28;21083;-71
2023/01/08 06:33:46;;;;;;;3.70;3.40;;;;;;;;;;4940755;28;20560;-71
2023/01/08 06:36:37;;;;;;;3.77;3.43;;;;;;;;;;4939101;28;20562;-71
2023/01/08 06:39:30;;;;;;;3.50;3.20;;;;;;;;;;4940276;29;20540;-71
2023/01/08 06:42:23;;;;;;;3.60;3.30;;;;;;;;;;4940154;28;20806;-71
2023/01/08 06:45:13;;;;;;;3.30;3.00;;;;;;;;;;4939482;28;20490;-71
2023/01/08 06:48:04;;;;;;;3.90;3.47;;;;;;;;;;4943976;28;20456;-71
2023/01/08 06:50:53;;;;;;;4.30;3.90;;;;;;;;;;4946601;29;21090;-71
2023/01/08 06:53:44;;;;;;;4.03;3.50;;;;;;;;;;4946552;29;20454;-71
2023/01/08 06:56:33;;;;;;;3.57;3.20;;;;;;;;;;4945283;28;20583;-70
2023/01/08 06:59:40;;;;;;;3.50;3.20;;;;;;;;;;4939289;29;20455;-70
2023/01/08 07:02:30;;;;;;;4.13;3.80;;;;;;;;;;4936742;28;20545;-70
2023/01/08 07:05:22;;;;;;;3.50;3.20;;;;;;;;;;4945105;28;20490;-70
2023/01/08 07:08:11;;;;;;;4.00;3.60;;;;;;;;;;4948545;28;20444;-70
2023/01/08 07:11:04;;;;;;;3.90;3.60;;;;;;;;;;4942240;28;20550;-70
2023/01/08 07:13:53;;;;;;;3.90;3.60;;;;;;;;;;4928928;28;20610;-70
2023/01/08 07:16:42;;;;;;;4.03;3.73;;;;;;;;;;4928906;28;20482;-72
2023/01/08 07:19:32;;;;;;;3.67;3.27;;;;;;;;;;4937406;29;20441;-70
2023/01/08 07:22:23;;;;;;;3.93;3.53;;;;;;;;;;4933867;28;22478;-70
2023/01/08 07:25:14;;;;;;;4.47;3.27;;;;;;;;;;4933259;28;20864;-70
2023/01/08 07:28:02;;;;;;;3.23;2.93;;;;;;;;;;4933672;28;20467;-72
2023/01/08 07:30:54;;;;;;;4.27;3.87;;;;;;;;;;4929106;28;20491;-70
2023/01/08 07:33:45;;;;;;;3.50;3.20;;;;;;;;;;4933891;28;20472;-72
2023/01/08 07:36:35;;;;;;;3.33;3.03;;;;;;;;;;4939943;28;20487;-72
2023/01/08 07:39:26;;;;;;;3.30;3.10;;;;;;;;;;4939117;28;20457;-73
2023/01/08 07:42:17;;;;;;;4.27;3.40;;;;;;;;;;4936031;28;20470;-70
2023/01/08 07:45:06;;;;;;;3.90;3.50;;;;;;;;;;4934210;28;20480;-70
2023/01/08 07:48:01;;;;;;;4.67;3.80;;;;;;;;;;4940633;28;20448;-70
2023/01/08 07:50:49;;;;;;;4.50;3.47;;;;;;;;;;4936427;28;20487;-72
2023/01/08 07:53:39;;;;;;;4.80;3.30;;;;;;;;;;4940776;28;21540;-72
2023/01/08 07:56:29;;;;;;;3.80;3.27;;;;;;;;;;4939853;28;20491;-71
2023/01/08 07:59:22;;;;;;;4.13;3.70;;;;;;;;;;4942952;28;20472;-71
2023/01/08 08:02:12;;;;;;;4.10;3.70;;;;;;;;;;4936408;28;20463;-71
2023/01/08 08:05:01;;;;;;;3.87;3.57;;;;;;;;;;4929226;28;23289;-70
2023/01/08 08:07:50;;;;;;;4.20;3.10;;;;;;;;;;4931815;28;20463;-71
2023/01/08 08:10:40;;;;;;;3.40;3.20;;;;;;;;;;4925325;28;20851;-71
2023/01/08 08:13:29;;;;;;;3.63;3.33;;;;;;;;;;4934957;28;20459;-71
2023/01/08 08:16:18;;;;;;;3.67;3.37;;;;;;;;;;4926098;28;20498;-72
2023/01/08 08:19:06;;;;;;;3.80;3.50;;;;;;;;;;4936129;28;20978;-72
2023/01/08 08:21:58;;;;;;;4.10;3.60;;;;;;;;;;4938299;28;20512;-73
2023/01/08 08:24:47;;;;;;;3.97;3.67;;;;;;;;;;4936273;28;20483;-72
2023/01/08 08:27:37;;;;;;;4.37;3.70;;;;;;;;;;4931993;28;20467;-73
2023/01/08 08:30:26;;;;;;;4.90;3.50;;;;;;;;;;4940015;28;20484;-73
2023/01/08 08:33:17;;;;;;;3.50;3.20;;;;;;;;;;4933337;28;20990;-74
2023/01/08 08:36:06;;;;;;;3.93;3.60;;;;;;;;;;4938474;28;20504;-75
2023/01/08 08:38:54;;;;;;;4.40;3.70;;;;;;;;;;4933603;28;20464;-74
2023/01/08 08:41:44;;;;;;;3.90;3.60;;;;;;;;;;4935604;28;20486;-75
2023/01/08 08:44:34;;;;;;;4.30;3.40;;;;;;;;;;4932443;28;20476;-74
2023/01/08 08:47:23;;;;;;;3.90;3.60;;;;;;;;;;4936602;28;21034;-75
2023/01/08 08:50:13;;;;;;;4.33;3.40;;;;;;;;;;4938574;28;20580;-76
2023/01/08 08:53:02;;;;;;;3.90;3.53;;;;;;;;;;4932406;28;20537;-74
2023/01/08 08:55:50;;;;;;;3.63;3.33;;;;;;;;;;4937633;28;20494;-75
2023/01/08 08:58:45;;;;;;;4.10;3.63;;;;;;;;;;4933803;28;20559;-75
2023/01/08 09:01:35;;;;;;;4.03;3.73;;;;;;;;;;4920665;28;20464;-74
2023/01/08 09:04:27;;;;;;;5.13;4.37;;;;;;;;;;4926620;28;20487;-73
2023/01/08 09:07:18;;;;;;;3.60;3.30;;;;;;;;;;4926259;28;21557;-74
2023/01/08 09:10:11;;;;;;;4.00;3.70;;;;;;;;;;4935527;28;20494;-81
2023/01/08 09:13:00;;;;;;;3.90;3.60;;;;;;;;;;4935637;28;20460;-80
2023/01/08 09:15:49;;;;;;;3.50;3.20;;;;;;;;;;4910794;28;21115;-80
2023/01/08 09:18:40;;;;;;;4.10;3.80;;;;;;;;;;4931675;28;21179;-74
2023/01/08 09:21:30;;;;;;;5.10;4.63;;;;;;;;;;4916265;28;20459;-74
2023/01/08 09:24:21;;;;;;;5.60;5.10;;;;;;;;;;4928006;28;20617;-73
2023/01/08 09:27:12;;;;;;;4.27;3.90;;;;;;;;;;4930720;28;20463;-76
2023/01/08 09:30:00;;;;;;;4.00;3.70;;;;;;;;;;4932554;28;20580;-78
2023/01/08 09:32:52;;;;;;;3.80;3.50;;;;;;;;;;4919664;28;20518;-76
2023/01/08 09:35:46;;;;;;;4.07;3.60;;;;;;;;;;4924575;28;20576;-74
2023/01/08 09:38:38;;;;;;;4.10;3.70;;;;;;;;;;4933792;28;21221;-80
2023/01/08 09:41:28;;;;;;;3.60;3.30;;;;;;;;;;4939478;28;20453;-77
2023/01/08 09:44:18;;;;;;;3.90;3.50;;;;;;;;;;4938988;28;20537;-76
2023/01/08 09:47:21;;;;;;;3.90;3.60;;;;;;;;;;4936820;28;20460;-75
2023/01/08 09:50:12;;;;;;;3.40;3.20;;;;;;;;;;4922738;28;20467;-76
2023/01/08 09:53:03;;;;;;;4.60;3.47;;;;;;;;;;4932777;28;20586;-77
2023/01/08 09:55:55;;;;;;;4.37;3.63;;;;;;;;;;4916086;28;20558;-77
2023/01/08 09:58:59;;;;;;;3.30;3.00;;;;;;;;;;4925634;28;20467;-77
2023/01/08 10:01:48;;;;;;;3.80;3.50;;;;;;;;;;4924522;28;20552;-77
2023/01/08 10:04:38;;;;;;;2.77;2.57;;;;;;;;;;4922761;28;20523;-76
2023/01/08 10:07:27;;;;;;;3.30;3.00;;;;;;;;;;4931623;28;20560;-76
2023/01/08 10:10:19;;;;;;;3.97;3.67;;;;;;;;;;4922995;28;20816;-75
2023/01/08 10:13:10;;;;;;;4.50;4.10;;;;;;;;;;4933924;28;20469;-75
2023/01/08 10:15:59;;;;;;;5.30;3.67;;;;;;;;;;4933206;28;20943;-74
2023/01/08 10:18:48;;;;;;;5.47;3.93;;;;;;;;;;4934176;28;20471;-73
2023/01/08 10:21:38;;;;;;;3.33;3.03;;;;;;;;;;4929675;28;20452;-74
2023/01/08 10:24:33;;;;;;;3.77;2.87;;;;;;;;;;4929930;28;21068;-73
2023/01/08 10:27:24;;;;;;;3.63;3.20;;;;;;;;;;4933815;28;20522;-78
2023/01/08 10:30:16;;;;;;;2.83;2.60;;;;;;;;;;4935857;28;20475;-77
2023/01/08 10:33:06;;;;;;;3.00;2.70;;;;;;;;;;4945986;28;20467;-78
2023/01/08 10:35:58;;;;;;;3.83;2.87;;;;;;;;;;4927015;28;20487;-78
2023/01/08 10:38:50;;;;;;;3.10;2.90;;;;;;;;;;4935597;28;20958;-77
2023/01/08 10:41:39;;;;;;;3.10;2.80;;;;;;;;;;4943824;28;20475;-79
2023/01/08 10:44:30;;;;;;;2.77;2.57;;;;;;;;;;4944895;28;20483;-77
2023/01/08 10:47:19;;;;;;;3.97;2.70;;;;;;;;;;4939390;28;20557;-77
2023/01/08 10:50:17;;;;;;;3.07;2.77;;;;;;;;;;4931277;28;20459;-76
2023/01/08 10:53:07;;;;;;;3.93;3.30;;;;;;;;;;4926271;28;21160;-76
2023/01/08 10:56:03;;;;;;;2.87;2.57;;;;;;;;;;4938275;28;20491;-77
2023/01/08 10:58:52;;;;;;;3.43;2.70;;;;;;;;;;4946460;28;20975;-78
2023/01/08 11:01:47;;;;;;;3.93;2.43;;;;;;;;;;4956478;28;20451;-79
2023/01/08 11:04:38;;;;;;;3.30;2.57;;;;;;;;;;4953889;28;20484;-81
2023/01/08 11:07:28;;;;;;;2.20;2.10;;;;;;;;;;4949753;29;20484;-77
2023/01/08 11:10:23;;;;;;;3.73;2.40;;;;;;;;;;4940244;28;20698;-75
2023/01/08 11:13:20;;;;;;;2.20;2.03;;;;;;;;;;4933237;28;21026;-76
2023/01/08 11:16:10;;;;;;;4.10;2.43;;;;;;;;;;4933124;28;21184;-75
2023/01/08 11:19:03;;;;;;;2.90;2.70;;;;;;;;;;4945421;28;20459;-75
2023/01/08 11:21:55;;;;;;;2.50;2.20;;;;;;;;;;4942541;29;20459;-76
2023/01/08 11:24:45;;;;;;;3.50;3.13;;;;;;;;;;4943641;28;20512;-76
2023/01/08 11:27:36;;;;;;;3.77;3.00;;;;;;;;;;4933045;28;21325;-76
2023/01/08 11:30:31;;;;;;;7.67;6.97;;;;;;;;;;4939919;28;20510;-74
2023/01/08 11:33:22;;;;;;;6.67;6.07;;;;;;;;;;4927367;28;21131;-74
2023/01/08 11:36:16;;;;;;;5.90;5.10;;;;;;;;;;4935156;28;20594;-75
2023/01/08 11:39:06;;;;;;;13.57;11.57;;;;;;;;;;4943375;28;21013;-76
2023/01/08 11:42:09;;;;;;;6.97;6.27;;;;;;;;;;4933065;28;20474;-75
2023/01/08 11:45:06;;;;;;;24.90;18.83;;;;;;;;;;4942437;28;20537;-75
2023/01/08 11:48:05;;;;;;;16.80;15.00;;;;;;;;;;4939026;28;20826;-75
2023/01/08 11:51:07;;;;;;;62.27;47.50;;;;;;;;;;4939091;28;20602;-76
2023/01/08 11:54:02;;;;;;;12.43;10.60;;;;;;;;;;4937283;28;20465;-76
2023/01/08 11:56:58;;;;;;;33.60;23.77;;;;;;;;;;4937352;28;20470;-76
2023/01/08 11:59:55;;;;;;;30.57;24.30;;;;;;;;;;4941325;28;20630;-77
2023/01/08 12:02:53;;;;;;;28.77;19.17;;;;;;;;;;4943870;28;20451;-76
2023/01/08 12:05:45;;;;;;;32.10;19.20;;;;;;;;;;4939078;28;21483;-78
2023/01/08 12:08:38;;;;;;;39.43;24.03;;;;;;;;;;4933728;28;20464;-78
2023/01/08 12:11:29;;;;;;;10.90;6.60;;;;;;;;;;4939946;28;20456;-75
2023/01/08 12:14:23;;;;;;;20.40;12.80;;;;;;;;;;4937939;28;20837;-75
2023/01/08 12:17:36;;;;;;;40.27;26.47;;;;;;;;;;4936241;28;20460;-76
2023/01/08 12:20:30;;;;;;;15.50;11.30;;;;;;;;;;4936764;28;20453;-76
2023/01/08 12:23:31;;;;;;;9.90;7.10;;;;;;;;;;4932843;28;20971;-76
2023/01/08 12:26:20;;;;;;;26.27;18.73;;;;;;;;;;4939354;28;20870;-76
2023/01/08 12:29:24;;;;;;;6.13;4.60;;;;;;;;;;4936276;28;20819;-76
2023/01/08 12:32:29;;;;;;;12.70;8.60;;;;;;;;;;4939384;28;20502;-76
2023/01/08 12:35:22;;;;;;;4.60;4.03;;;;;;;;;;4938908;28;21899;-76
2023/01/08 12:38:13;;;;;;;4.10;3.33;;;;;;;;;;4939315;28;20469;-74
2023/01/08 12:41:04;;;;;;;10.23;7.70;;;;;;;;;;4939584;28;20852;-75
2023/01/08 12:43:55;;;;;;;13.00;10.90;;;;;;;;;;4942319;28;20971;-75
2023/01/08 12:46:46;;;;;;;13.20;8.00;;;;;;;;;;4931625;28;20611;-75
2023/01/08 12:49:38;;;;;;;3.67;2.63;;;;;;;;;;4937172;28;20483;-75
2023/01/08 12:52:35;;;;;;;6.27;4.73;;;;;;;;;;4932827;28;20479;-75
2023/01/08 12:55:34;;;;;;;13.87;9.30;;;;;;;;;;4933901;28;21064;-74
2023/01/08 12:58:32;;;;;;;11.50;8.10;;;;;;;;;;4923799;28;20782;-75
2023/01/08 13:01:29;;;;;;;9.87;5.20;;;;;;;;;;4930766;28;20466;-76
2023/01/08 13:04:20;;;;;;;11.50;8.63;;;;;;;;;;4927515;28;20484;-74
2023/01/08 13:07:18;;;;;;;9.40;6.07;;;;;;;;;;4931681;28;20509;-75
2023/01/08 13:10:09;;;;;;;6.20;5.40;;;;;;;;;;4938501;28;20511;-75
2023/01/08 13:12:57;;;;;;;4.27;3.33;;;;;;;;;;4937096;28;20490;-75
2023/01/08 13:15:46;;;;;;;6.30;5.00;;;;;;;;;;4929260;28;20493;-75
2023/01/08 13:18:35;;;;;;;6.83;3.87;;;;;;;;;;4931944;28;20684;-75
2023/01/08 13:21:36;;;;;;;9.23;5.50;;;;;;;;;;4935241;28;20502;-76
2023/01/08 13:24:28;;;;;;;6.30;5.00;;;;;;;;;;4936701;28;20482;-75
2023/01/08 13:27:28;;;;;;;4.37;3.97;;;;;;;;;;4934113;28;21277;-76
2023/01/08 13:30:39;;;;;;;7.33;5.40;;;;;;;;;;4935095;28;20535;-76
2023/01/08 13:33:40;;;;;;;5.20;3.90;;;;;;;;;;4932726;28;22454;-80
2023/01/08 13:36:29;;;;;;;5.00;3.67;;;;;;;;;;4929553;28;20519;-77
2023/01/08 13:39:23;;;;;;;5.07;4.43;;;;;;;;;;4932950;28;21522;-76
2023/01/08 13:42:20;;;;;;;5.47;3.73;;;;;;;;;;4931355;28;20500;-76
2023/01/08 13:45:13;;;;;;;4.00;2.77;;;;;;;;;;4922984;28;21288;-76
2023/01/08 13:48:02;;;;;;;5.17;3.60;;;;;;;;;;4930002;28;20661;-76
2023/01/08 13:50:53;;;;;;;2.73;2.27;;;;;;;;;;4938882;28;20599;-76
2023/01/08 13:53:42;;;;;;;3.30;3.00;;;;;;;;;;4943308;28;20467;-77
2023/01/08 13:56:34;;;;;;;4.00;3.60;;;;;;;;;;4935633;28;20488;-77
2023/01/08 13:59:34;;;;;;;4.50;4.07;;;;;;;;;;4939228;28;20467;-77
2023/01/08 14:02:27;;;;;;;3.00;2.80;;;;;;;;;;4942104;28;20452;-77
2023/01/08 14:05:21;;;;;;;2.27;2.10;;;;;;;;;;4936234;28;20523;-76
2023/01/08 14:08:21;;;;;;;4.20;3.03;;;;;;;;;;4937900;28;21187;-76
2023/01/08 14:11:11;;;;;;;3.83;2.00;;;;;;;;;;4938255;28;21085;-77
2023/01/08 14:14:04;;;;;;;3.10;2.50;;;;;;;;;;4935571;28;20499;-77
2023/01/08 14:16:54;;;;;;;2.93;2.30;;;;;;;;;;4937689;28;20487;-77
2023/01/08 14:19:44;;;;;;;5.20;2.60;;;;;;;;;;4940237;28;21049;-77
2023/01/08 14:22:34;;;;;;;4.07;2.90;;;;;;;;;;4940856;28;20462;-77
2023/01/08 14:25:25;;;;;;;4.20;2.30;;;;;;;;;;4940442;28;20484;-77
2023/01/08 14:28:17;;;;;;;2.97;1.90;;;;;;;;;;4938194;28;20814;-77
2023/01/08 14:31:22;;;;;;;2.40;2.20;;;;;;;;;;4937810;28;20452;-77
2023/01/08 14:34:13;;;;;;;3.23;2.37;;;;;;;;;;4937115;28;20534;-77
2023/01/08 14:37:03;;;;;;;3.10;1.70;;;;;;;;;;4938465;28;20997;-77
2023/01/08 14:39:52;;;;;;;2.27;1.70;;;;;;;;;;4943556;28;20464;-77
2023/01/08 14:42:45;;;;;;;2.80;1.87;;;;;;;;;;4938985;28;20464;-76
2023/01/08 14:45:34;;;;;;;3.47;2.20;;;;;;;;;;4943678;28;20491;-76
2023/01/08 14:48:26;;;;;;;5.00;1.87;;;;;;;;;;4943162;28;20457;-76
2023/01/08 14:51:16;;;;;;;4.37;2.63;;;;;;;;;;4939151;28;20489;-76
2023/01/08 14:54:08;;;;;;;4.33;2.50;;;;;;;;;;4941097;28;20582;-76
2023/01/08 14:56:59;;;;;;;3.53;2.50;;;;;;;;;;4940664;28;20540;-76
2023/01/08 14:59:52;;;;;;;5.00;2.10;;;;;;;;;;4938935;28;20464;-76
2023/01/08 15:02:40;;;;;;;6.97;4.07;;;;;;;;;;4942277;28;21005;-76
2023/01/08 15:05:31;;;;;;;5.07;3.70;;;;;;;;;;4939390;28;20495;-77
2023/01/08 15:08:24;;;;;;;4.70;3.10;;;;;;;;;;4942272;28;20468;-76
2023/01/08 15:11:21;;;;;;;3.80;2.63;;;;;;;;;;4945730;28;20467;-76
2023/01/08 15:14:23;;;;;;;4.23;2.67;;;;;;;;;;4942112;28;20844;-76
2023/01/08 15:17:13;;;;;;;4.27;2.60;;;;;;;;;;4948118;28;20485;-76
2023/01/08 15:20:02;;;;;;;3.63;3.10;;;;;;;;;;4945929;29;20447;-76
2023/01/08 15:22:52;;;;;;;4.43;2.77;;;;;;;;;;4946377;29;20451;-76
2023/01/08 15:25:45;;;;;;;5.63;3.13;;;;;;;;;;4946479;28;20531;-76
2023/01/08 15:28:36;;;;;;;4.67;2.90;;;;;;;;;;4940103;28;20491;-79
2023/01/08 15:31:29;;;;;;;3.50;2.30;;;;;;;;;;4939518;28;20463;-76
2023/01/08 15:34:19;;;;;;;3.47;1.90;;;;;;;;;;4942630;28;20471;-77
2023/01/08 15:37:07;;;;;;;3.90;2.00;;;;;;;;;;4942262;28;20459;-76
2023/01/08 15:39:57;;;;;;;5.50;2.47;;;;;;;;;;4942558;28;20465;-76
2023/01/08 15:45:52;;;;;;;4.17;1.83;;;;;;;;;;4935014;28;20476;-75
2023/01/08 15:48:41;;;;;;;3.27;1.70;;;;;;;;;;4945321;29;20487;-76
2023/01/08 15:51:32;;;;;;;3.33;2.10;;;;;;;;;;4942669;28;20901;-76
2023/01/08 15:54:21;;;;;;;5.30;2.10;;;;;;;;;;4935882;28;20491;-75
2023/01/08 15:57:12;;;;;;;2.53;1.60;;;;;;;;;;4939570;28;21828;-75
2023/01/08 16:00:01;;;;;;;3.43;2.50;;;;;;;;;;4943601;28;20463;-75
2023/01/08 16:02:51;;;;;;;3.50;2.60;;;;;;;;;;4939330;28;20466;-75
2023/01/08 16:05:41;;;;;;;3.50;2.20;;;;;;;;;;4943225;28;20492;-76
2023/01/08 16:08:34;;;;;;;6.73;3.00;;;;;;;;;;4942947;28;20470;-76
2023/01/08 16:11:22;;;;;;;2.40;2.20;;;;;;;;;;4945574;28;20837;-75
2023/01/08 16:14:14;;;;;;;5.07;2.43;;;;;;;;;;4938467;28;20549;-77
2023/01/08 16:17:03;;;;;;;5.13;2.40;;;;;;;;;;4938937;28;20825;-75
2023/01/08 16:19:53;;;;;;;4.30;2.50;;;;;;;;;;4943593;28;20471;-76
2023/01/08 16:22:42;;;;;;;5.70;2.33;;;;;;;;;;4944186;28;20967;-76
2023/01/08 16:25:33;;;;;;;2.73;1.80;;;;;;;;;;4943254;28;20524;-75
2023/01/08 16:28:22;;;;;;;2.90;2.10;;;;;;;;;;4939096;28;20959;-75
2023/01/08 16:31:13;;;;;;;3.87;1.97;;;;;;;;;;4944784;28;20457;-75
2023/01/08 16:34:11;;;;;;;5.33;1.97;;;;;;;;;;4941826;28;20857;-75
2023/01/08 16:37:00;;;;;;;2.10;1.80;;;;;;;;;;4943401;28;20449;-75
2023/01/08 16:39:49;;;;;;;5.50;2.20;;;;;;;;;;4940706;28;20464;-75
2023/01/08 16:42:38;;;;;;;4.77;2.07;;;;;;;;;;4941433;28;20460;-75
2023/01/08 16:45:27;;;;;;;2.90;2.00;;;;;;;;;;4943002;28;20583;-75
2023/01/08 16:48:18;;;;;;;4.20;2.00;;;;;;;;;;4938223;28;20474;-75
2023/01/08 16:51:06;;;;;;;9.70;4.80;;;;;;;;;;4944377;28;20455;-75
2023/01/08 16:53:58;;;;;;;4.30;2.83;;;;;;;;;;4935111;28;20491;-75
2023/01/08 16:56:49;;;;;;;6.50;3.57;;;;;;;;;;4938278;28;20494;-75
2023/01/08 16:59:37;;;;;;;7.23;3.70;;;;;;;;;;4941115;28;20464;-75
2023/01/08 17:02:28;;;;;;;5.63;3.40;;;;;;;;;;4940874;28;20560;-76
2023/01/08 17:05:18;;;;;;;4.90;3.33;;;;;;;;;;4939323;28;20486;-75
2023/01/08 17:08:07;;;;;;;3.63;2.80;;;;;;;;;;4942249;28;20488;-75
2023/01/08 17:10:56;;;;;;;3.50;2.33;;;;;;;;;;4943354;28;20467;-77
2023/01/08 17:13:44;;;;;;;3.47;3.00;;;;;;;;;;4942323;28;20456;-75